createdAt,value
2023-04-04T00:03:07.096Z,0.87
2023-04-04T00:08:10.716Z,1.37
2023-04-04T00:13:15.961Z,1.10
2023-04-04T00:18:19.524Z,0.73
2023-04-04T00:23:23.995Z,0.67
2023-04-04T00:28:29.095Z,0.47
2023-04-04T00:33:32.545Z,1.07
2023-04-04T00:38:35.938Z,0.57
2023-04-04T00:43:41.378Z,0.67
2023-04-04T00:48:44.860Z,0.50
2023-04-04T00:53:49.665Z,0.80
2023-04-04T00:58:54.319Z,0.40
2023-04-04T01:03:57.989Z,0.60
2023-04-04T01:09:04.887Z,1.20
2023-04-04T01:14:09.772Z,0.40
2023-04-04T01:19:23.618Z,0.60
2023-04-04T01:24:35.119Z,0.40
2023-04-04T01:29:42.472Z,0.77
2023-04-04T01:35:12.864Z,0.63
2023-04-04T01:40:22.316Z,0.73
2023-04-04T01:45:29.861Z,0.60
2023-04-04T01:50:35.854Z,0.70
2023-04-04T01:55:41.277Z,0.93
2023-04-04T02:00:47.392Z,0.80
2023-04-04T02:05:51.237Z,1.10
2023-04-04T02:10:57.617Z,1.17
2023-04-04T02:16:05.348Z,0.70
2023-04-04T02:21:09.964Z,0.90
2023-04-04T02:26:27.785Z,0.60
2023-04-04T02:31:32.312Z,0.77
2023-04-04T02:36:36.804Z,0.50
2023-04-04T02:41:41.688Z,0.33
2023-04-04T02:46:46.584Z,0.50
2023-04-04T02:51:52.714Z,0.40
2023-04-04T02:56:59.618Z,0.50
2023-04-04T03:02:04.745Z,0.97
2023-04-04T03:07:09.083Z,1.37
2023-04-04T03:12:12.819Z,0.40
2023-04-04T03:17:22.479Z,0.97
2023-04-04T03:22:25.744Z,0.97
2023-04-04T03:27:33.462Z,0.67
2023-04-04T03:32:42.670Z,1.60
2023-04-04T03:37:46.074Z,0.60
2023-04-04T03:42:49.335Z,1.13
2023-04-04T03:47:57.269Z,0.70
2023-04-04T03:53:01.804Z,0.60
2023-04-04T03:58:05.040Z,1.10
2023-04-04T04:03:14.119Z,0.80
2023-04-04T04:08:22.000Z,0.60
2023-04-04T04:13:29.665Z,0.60
2023-04-04T04:18:34.613Z,0.67
2023-04-04T04:23:42.278Z,2.23
2023-04-04T04:28:48.251Z,0.57
2023-04-04T04:34:14.474Z,1.00
2023-04-04T04:39:18.826Z,0.83
2023-04-04T04:44:36.479Z,0.80
2023-04-04T04:49:43.542Z,0.70
2023-04-04T04:54:48.465Z,0.80
2023-04-04T04:59:51.946Z,0.50
2023-04-04T05:04:59.041Z,1.10
2023-04-04T05:10:03.822Z,0.60
2023-04-04T05:15:09.371Z,1.03
2023-04-04T05:20:14.901Z,1.50
2023-04-04T05:25:24.617Z,1.03
2023-04-04T05:30:28.926Z,0.80
2023-04-04T05:35:47.277Z,1.80
2023-04-04T05:40:54.436Z,1.50
2023-04-04T05:45:59.091Z,1.30
2023-04-04T05:51:05.469Z,0.90
2023-04-04T05:56:20.622Z,1.10
2023-04-04T06:01:23.990Z,0.70
2023-04-04T06:06:31.352Z,1.00
2023-04-04T06:11:34.660Z,1.10
2023-04-04T06:16:44.411Z,1.10
2023-04-04T06:21:56.668Z,0.77
2023-04-04T06:27:00.700Z,1.23
2023-04-04T06:32:07.333Z,0.90
2023-04-04T06:37:16.339Z,1.20
2023-04-04T06:42:39.993Z,1.60
2023-04-04T06:47:44.291Z,1.03
2023-04-04T06:52:50.790Z,0.97
2023-04-04T06:58:03.110Z,0.90
2023-04-04T07:03:06.337Z,1.27
2023-04-04T07:08:11.770Z,1.10
2023-04-04T07:13:20.663Z,1.77
2023-04-04T07:18:24.032Z,1.13
2023-04-04T07:23:29.032Z,1.17
2023-04-04T07:28:37.921Z,1.40
2023-04-04T07:33:41.152Z,2.17
2023-04-04T07:38:47.673Z,3.60
2023-04-04T07:43:54.580Z,1.27
2023-04-04T07:48:57.932Z,1.20
2023-04-04T07:54:04.551Z,1.57
2023-04-04T07:59:07.980Z,1.57
2023-04-04T08:04:11.635Z,1.20
2023-04-04T08:09:16.678Z,2.27
2023-04-04T08:14:19.883Z,2.37
2023-04-04T08:19:23.194Z,3.23
2023-04-04T08:24:28.327Z,2.00
2023-04-04T08:29:32.846Z,2.00
2023-04-04T08:34:36.388Z,2.47
2023-04-04T08:39:41.334Z,2.50
2023-04-04T08:44:47.140Z,1.97
2023-04-04T08:49:52.803Z,1.80
2023-04-04T08:54:58.890Z,1.63
2023-04-04T09:00:03.265Z,1.30
2023-04-04T09:05:09.509Z,1.40
2023-04-04T09:10:17.943Z,1.63
2023-04-04T09:15:21.755Z,2.33
2023-04-04T09:20:39.802Z,1.70
2023-04-04T09:30:55.663Z,2.30
2023-04-04T09:36:04.202Z,2.53
2023-04-04T09:41:11.318Z,3.87
2023-04-04T09:46:16.083Z,1.73
2023-04-04T09:51:19.538Z,1.63
2023-04-04T09:56:35.552Z,1.73
2023-04-04T10:01:43.607Z,1.97
2023-04-04T10:06:47.281Z,2.40
2023-04-04T10:11:52.034Z,2.03
2023-04-04T10:17:01.492Z,1.97
2023-04-04T10:22:06.202Z,1.30
2023-04-04T10:27:14.526Z,2.37
2023-04-04T10:32:24.325Z,1.80
2023-04-04T10:37:29.523Z,1.47
2023-04-04T10:42:40.047Z,3.00
2023-04-04T10:47:45.543Z,1.47
2023-04-04T10:52:57.835Z,1.63
2023-04-04T10:58:08.452Z,1.20
2023-04-04T11:03:15.352Z,2.43
2023-04-04T11:08:20.717Z,3.13
2023-04-04T11:13:35.287Z,1.50
2023-04-04T11:18:49.036Z,1.67
2023-04-04T11:24:16.977Z,2.37
2023-04-04T11:29:51.902Z,2.20
2023-04-04T11:35:00.962Z,1.37
2023-04-04T11:40:12.733Z,1.83
2023-04-04T11:45:22.469Z,2.00
2023-04-04T11:50:30.955Z,1.30
2023-04-04T11:55:34.618Z,1.43
2023-04-04T12:00:42.132Z,2.17
2023-04-04T12:05:47.776Z,1.57
2023-04-04T12:10:57.852Z,1.10
2023-04-04T12:16:03.911Z,1.53
2023-04-04T12:21:13.176Z,1.87
2023-04-04T12:26:16.975Z,1.10
2023-04-04T12:31:26.318Z,1.67
2023-04-04T12:36:31.566Z,2.03
2023-04-04T12:41:35.635Z,1.30
2023-04-04T12:46:42.627Z,1.57
2023-04-04T12:51:46.210Z,1.53
2023-04-04T12:56:49.914Z,2.23
2023-04-04T13:01:55.027Z,2.00
2023-04-04T13:06:59.997Z,1.40
2023-04-04T13:12:06.090Z,1.73
2023-04-04T13:17:11.011Z,1.87
2023-04-04T13:22:14.572Z,1.70
2023-04-04T13:27:17.895Z,1.43
2023-04-04T13:32:22.748Z,1.90
2023-04-04T13:37:27.092Z,1.30
2023-04-04T13:42:36.876Z,1.30
2023-04-04T13:47:45.501Z,1.80
2023-04-04T13:52:48.843Z,1.30
2023-04-04T14:09:20.542Z,1.40
2023-04-04T14:14:41.244Z,1.43
2023-04-04T14:20:19.142Z,1.40
2023-04-04T14:25:30.949Z,1.50
2023-04-04T14:31:10.017Z,1.63
2023-04-04T14:42:41.055Z,1.80
2023-04-04T14:48:07.095Z,1.30
2023-04-04T14:53:32.120Z,1.50
2023-04-04T14:58:55.495Z,1.30
2023-04-04T15:04:21.276Z,1.20
2023-04-04T15:09:46.107Z,1.30
2023-04-04T15:15:16.084Z,1.80
2023-04-04T15:20:40.010Z,1.37
2023-04-04T15:26:05.286Z,1.20
2023-04-04T15:31:28.149Z,1.40
2023-04-04T15:36:51.210Z,1.77
2023-04-04T15:42:24.169Z,2.07
2023-04-04T15:47:48.241Z,1.73
2023-04-04T15:53:20.255Z,1.27
2023-04-04T15:59:00.505Z,1.10
2023-04-04T16:04:24.225Z,1.43
2023-04-04T16:09:47.117Z,1.67
2023-04-04T16:15:15.189Z,1.03
2023-04-04T16:20:44.401Z,1.10
2023-04-04T16:26:10.115Z,1.30
2023-04-04T16:31:35.152Z,1.80
2023-04-04T16:36:58.185Z,1.37
2023-04-04T16:42:27.208Z,1.23
2023-04-04T16:47:52.247Z,1.77
2023-04-04T16:53:15.192Z,1.17
2023-04-04T16:58:38.215Z,1.03
2023-04-04T17:04:03.172Z,1.30
2023-04-04T17:09:29.582Z,1.90
2023-04-04T17:14:53.265Z,0.80
2023-04-04T17:20:30.238Z,1.17
2023-04-04T17:25:57.199Z,1.07
2023-04-04T17:31:22.249Z,1.20
2023-04-04T17:36:54.514Z,1.23
2023-04-04T17:42:17.155Z,1.20
2023-04-04T17:47:40.251Z,1.40
2023-04-04T17:53:05.392Z,1.10
2023-04-04T17:58:28.375Z,1.03
2023-04-04T18:03:52.421Z,1.93
2023-04-04T18:09:17.410Z,2.53
2023-04-04T18:14:40.201Z,1.50
2023-04-04T18:20:07.651Z,2.07
2023-04-04T18:25:32.215Z,1.97
2023-04-04T18:30:57.220Z,1.87
2023-04-04T18:36:21.418Z,1.83
2023-04-04T18:41:46.217Z,2.07
2023-04-04T18:47:11.220Z,1.67
2023-04-04T18:52:34.179Z,3.17
2023-04-04T18:57:59.304Z,2.90
2023-04-04T19:03:22.346Z,2.30
2023-04-04T19:08:46.252Z,1.50
2023-04-04T19:14:11.289Z,1.93
2023-04-04T19:19:38.238Z,1.40
2023-04-04T19:25:02.237Z,2.10
2023-04-04T19:30:51.266Z,2.53
2023-04-04T19:36:23.210Z,4.80
2023-04-04T19:41:49.229Z,2.73
2023-04-04T19:47:14.214Z,3.23
2023-04-04T19:52:39.393Z,2.40
2023-04-04T20:04:53.298Z,2.30
2023-04-04T20:10:11.358Z,2.33
2023-04-04T20:16:12.127Z,2.37
2023-04-04T20:29:10.355Z,1.30
2023-04-04T20:34:42.879Z,1.10
2023-04-04T20:39:55.471Z,0.87
2023-04-04T20:45:01.782Z,1.13
2023-04-04T20:50:43.938Z,1.03
2023-04-04T20:55:47.087Z,2.03
2023-04-04T21:00:52.089Z,1.53
2023-04-04T21:06:03.513Z,2.20
2023-04-04T21:11:08.016Z,1.83
2023-04-04T21:16:18.111Z,1.93
2023-04-04T21:21:21.748Z,2.53
2023-04-04T21:26:33.393Z,2.37
2023-04-04T21:31:43.358Z,1.77
2023-04-04T21:36:50.404Z,1.80
2023-04-04T21:41:58.103Z,1.53
2023-04-04T21:47:02.866Z,1.63
2023-04-04T21:52:06.290Z,2.10
2023-04-04T21:57:13.368Z,1.90
2023-04-04T22:02:21.735Z,1.70
2023-04-04T22:07:24.919Z,1.70
2023-04-04T22:12:28.201Z,1.40
2023-04-04T22:17:32.812Z,1.50
2023-04-04T22:22:43.776Z,1.70
2023-04-04T22:27:49.904Z,1.60
2023-04-04T22:32:59.669Z,1.50
2023-04-04T22:38:03.605Z,2.37
2023-04-04T22:43:07.008Z,1.47
2023-04-04T22:48:11.495Z,1.30
2023-04-04T22:53:15.237Z,2.07
2023-04-04T22:58:18.461Z,1.37
2023-04-04T23:03:22.971Z,1.80
2023-04-04T23:08:26.258Z,1.90
2023-04-04T23:13:29.429Z,1.77
2023-04-04T23:18:33.992Z,2.97
2023-04-04T23:23:38.992Z,1.70
2023-04-04T23:28:42.583Z,1.40
2023-04-04T23:33:47.419Z,1.33
2023-04-04T23:38:50.830Z,1.53
2023-04-04T23:43:54.497Z,1.60
2023-04-04T23:49:06.563Z,1.07
2023-04-04T23:54:11.002Z,1.40
2023-04-04T23:59:14.681Z,1.77
